EW6786 Weather Reports


Display with metric or nautical units.
time (UTC)temp
F
wind
direction
speed
MPH
gust
MPH
rain 1hr
in
rain 24hr
in
rain mn
in
humidity
%
barometer
mb
20210513091015 38 247 4.0 12.0 0.00 0.32 0.26 68 1002.7
20210513090015 38 202 5.0 12.0 0.00 0.33 0.26 68 1002.6
20210513085015 38 247 3.0 14.0 0.01 0.33 0.26 68 1002.7
20210513084016 39 270 4.0 17.0 0.01 0.34 0.26 68 1002.7
20210513083015 38 225 4.0 18.0 0.03 0.35 0.26 68 1002.7
20210513082015 39 292 5.0 15.0 0.03 0.36 0.26 68 1002.9
20210513081015 39 292 3.0 12.0 0.03 0.35 0.25 68 1002.5
20210513080015 39 292 2.0 9.0 0.03 0.36 0.25 68 1002.9
20210513075015 38 270 4.0 12.0 0.03 0.36 0.25 68 1002.7
20210513074015 39 247 2.0 11.0 0.03 0.37 0.25 68 1002.9
20210513073017 39 292 4.0 16.0 0.02 0.36 0.23 68 1002.9
20210513072017 38 270 5.0 16.0 0.02 0.36 0.23 68 1003.0
20210513071017 38 270 3.0 13.0 0.00 0.34 0.22 68 1002.9
20210513070017 38 202 3.0 16.0 0.00 0.34 0.22 68 1003.0
20210513065015 38 202 4.0 15.0 0.00 0.36 0.22 68 1003.0
20210513064017 38 247 2.0 8.0 0.01 0.38 0.22 68 1002.9
20210513063017 38 247 6.0 14.0 0.00 0.39 0.21 68 1002.8
20210513062017 38 270 6.0 16.0 0.00 0.40 0.21 68 1002.8
20210513061017 38 202 5.0 13.0 0.00 0.40 0.21 68 1002.8
20210513060017 38 270 4.0 13.0 0.01 0.40 0.21 68 1002.7
20210513055017 38 202 5.0 13.0 0.02 0.40 0.21 68 1002.8
20210513054017 38 270 7.0 18.0 0.01 0.40 0.20 68 1002.8
20210513053017 38 202 7.0 15.0 0.01 0.40 0.20 68 1002.8
20210513052017 38 202 7.0 19.0 0.01 0.40 0.20 68 1002.8
20210513051016 39 202 10.0 28.0 0.01 0.40 0.20 68 1002.8
20210513050017 38 247 7.0 17.0 0.00 0.40 0.19 68 1003.0
20210513045016 38 247 8.0 21.0 0.00 0.39 0.18 68 1002.9
20210513044016 39 202 9.0 18.0 0.00 0.41 0.18 68 1002.9
20210513043017 39 202 11.0 26.0 0.00 0.45 0.18 68 1003.0
20210513042017 39 247 10.0 21.0 0.00 0.51 0.18 68 1003.0
20210513041203 39 225 9.0 34.0 0.00 0.51 0.18 68 1002.9
20210513040016 39 202 9.0 19.0 0.00 0.51 0.18 68 1002.9
20210513035016 39 202 10.0 19.0 0.01 0.51 0.18 68 1003.0
20210513034016 39 202 9.0 22.0 0.01 0.51 0.18 68 1003.1
20210513033016 39 247 8.0 16.0 0.02 0.51 0.18 68 1003.2
20210513032016 39 225 5.0 11.0 0.03 0.51 0.18 68 1003.3
20210513031016 39 202 3.0 11.0 0.02 0.51 0.18 68 1003.5
20210513030016 39 247 5.0 14.0 0.02 0.55 0.18 68 1003.5
20210513025016 39 270 4.0 19.0 0.02 0.55 0.17 68 1003.6
20210513024016 39 202 7.0 23.0 0.03 0.55 0.17 68 1003.7
20210513023016 39 247 5.0 13.0 0.03 0.54 0.16 68 1003.7
20210513022016 39 247 5.0 14.0 0.04 0.53 0.15 68 1003.7
20210513021016 39 270 4.0 15.0 0.04 0.53 0.15 68 1003.9
20210513020016 39 225 4.0 14.0 0.06 0.53 0.15 68 1003.5
20210513015016 39 225 5.0 12.0 0.07 0.52 0.14 68 1004.0
20210513014018 39 202 4.0 12.0 0.07 0.51 0.13 68 1004.2
20210513013016 39 247 5.0 15.0 0.07 0.50 0.12 68 1004.3
20210513012655 39 247 4.0 17.0 0.06 0.48 0.11 68 1004.4
20210513002016 40 225 3.0 13.0 0.01 0.42 0.04 68 1004.6
20210513001016 40 270 2.0 11.0 0.02 0.42 0.04 68 1004.8
20210513000016 40 202 1.0 8.0 0.01 0.41 0.03 68 1004.7
20210512235016 40 202 3.0 14.0 0.02 0.41 0.03 68 1004.7
20210512234016 40 315 3.0 14.0 0.01 0.40 0.03 68 1004.8
20210512233016 40 247 5.0 16.0 0.01 0.40 0.03 68 1004.7
20210512232016 40 292 4.0 12.0 0.02 0.40 0.03 68 1004.8
20210512231016 40 337 3.0 18.0 0.02 0.40 0.02 67 1005.0
20210512230016 40 247 2.0 11.0 0.02 0.40 0.02 67 1005.1
20210512225016 40 292 4.0 17.0 0.01 0.39 0.01 67 1005.0
20210512224016 40 270 5.0 18.0 0.01 0.39 0.01 67 1005.2
20210512223016 40 225 6.0 13.0 0.01 0.39 0.01 67 1005.4
20210512222016 40 270 4.0 20.0 0.00 0.38 0.00 67 1005.3
20210512221016 40 247 2.0 11.0 0.00 0.37 0.00 67 1005.3
20210512220016 40 202 4.0 12.0 0.00 0.37 0.37 67 1005.8
20210512215017 40 337 2.0 10.0 0.00 0.37 0.37 67 1005.7
20210512214017 40 337 4.0 17.0 0.00 0.37 0.37 67 1005.7
20210512213017 40 270 6.0 15.0 0.00 0.37 0.37 67 1005.4
20210512212017 40 247 4.0 13.0 0.00 0.37 0.37 67 1005.7
20210512211017 40 180 5.0 13.0 0.00 0.37 0.37 67 1005.2
20210512210017 40 315 5.0 19.0 0.00 0.37 0.37 67 1005.5
20210512205017 40 292 4.0 16.0 0.00 0.37 0.37 67 1005.6
20210512204017 40 270 3.0 14.0 0.00 0.37 0.37 67 1005.4
20210512203017 40 315 4.0 16.0 0.00 0.37 0.37 67 1005.5
20210512202017 40 337 3.0 17.0 0.00 0.37 0.37 67 1005.6
20210512201017 40 270 1.0 10.0 0.00 0.37 0.37 67 1005.7
20210512200017 40 292 2.0 15.0 0.00 0.37 0.37 67 1005.7
20210512195017 40 270 3.0 12.0 0.00 0.37 0.37 67 1005.7
20210512194017 40 247 3.0 14.0 0.00 0.37 0.37 67 1005.8
20210512193016 40 225 2.0 9.0 0.00 0.37 0.37 67 1005.6
20210512192017 40 270 2.0 12.0 0.00 0.37 0.37 67 1005.3
20210512191017 40 337 4.0 14.0 0.00 0.37 0.37 67 1005.2
20210512190016 40 225 3.0 13.0 0.00 0.37 0.37 67 1005.2
20210512185016 40 247 5.0 12.0 0.00 0.37 0.37 67 1005.2
20210512184016 40 247 5.0 13.0 0.00 0.37 0.37 67 1005.5
20210512183017 40 225 2.0 11.0 0.00 0.37 0.37 67 1005.4
20210512182016 40 292 2.0 10.0 0.00 0.37 0.37 67 1005.4
20210512181016 40 202 4.0 13.0 0.00 0.37 0.37 67 1005.4
20210512180016 40 247 4.0 13.0 0.00 0.37 0.37 67 1005.5
20210512175016 41 225 2.0 10.0 0.00 0.37 0.37 67 1005.6
20210512174016 41 270 2.0 9.0 0.00 0.37 0.37 67 1005.4
20210512173017 41 270 3.0 15.0 0.00 0.37 0.37 67 1005.3
20210512172016 41 315 2.0 10.0 0.00 0.37 0.37 67 1005.3
20210512171016 41 202 2.0 11.0 0.00 0.37 0.37 67 1005.3
20210512170016 41 247 1.0 17.0 0.01 0.37 0.37 67 1005.4
20210512165016 41 247 1.0 9.0 0.02 0.37 0.37 67 1005.6
20210512164016 41 292 3.0 10.0 0.02 0.37 0.37 67 1005.5
20210512163016 41 270 2.0 9.0 0.01 0.36 0.36 67 1005.6
20210512162016 41 247 5.0 16.0 0.01 0.36 0.36 67 1005.5
20210512161016 41 225 1.0 6.0 0.01 0.36 0.36 67 1005.6
20210512160016 41 292 2.0 13.0 0.00 0.35 0.35 67 1005.7
20210512155016 41 270 1.0 9.0 0.00 0.34 0.34 67 1005.8
20210512154016 41 292 2.0 13.0 0.00 0.34 0.34 67 1006.0
20210512153016 41 270 1.0 12.0 0.00 0.34 0.34 67 1006.0
20210512152016 41 315 3.0 11.0 0.00 0.34 0.34 67 1006.1
20210512151016 41 202 3.0 11.0 0.01 0.34 0.34 67 1006.0
20210512150016 41 247 3.0 11.0 0.01 0.34 0.34 67 1005.8
20210512145016 41 270 2.0 12.0 0.01 0.34 0.34 67 1005.9
20210512144016 41 202 1.0 10.0 0.01 0.34 0.34 67 1005.9
20210512143016 41 202 3.0 10.0 0.01 0.34 0.34 67 1006.0
20210512142016 41 270 3.0 13.0 0.00 0.33 0.33 67 1006.0
20210512141016 41 202 1.0 7.0 0.00 0.33 0.33 67 1006.2
20210512140016 41 202 2.0 6.0 0.00 0.33 0.33 67 1005.9
20210512135016 41 270 1.0 9.0 0.00 0.33 0.33 67 1006.2
20210512134016 41 225 1.0 8.0 0.00 0.33 0.33 67 1006.1
20210512133016 41 247 1.0 10.0 0.00 0.33 0.33 67 1006.0
20210512132016 41 292 2.0 13.0 0.00 0.33 0.33 67 1006.0
20210512131016 41 202 2.0 9.0 0.00 0.33 0.33 67 1006.1
20210512130016 42 270 1.0 9.0 0.00 0.33 0.33 67 1006.0
20210512125016 42 202 1.0 8.0 0.00 0.33 0.33 67 1005.9
20210512124016 42 270 1.0 9.0 0.00 0.33 0.33 67 1005.9
20210512123016 42 292 1.0 12.0 0.00 0.33 0.33 67 1006.2
20210512122016 42 202 3.0 10.0 0.00 0.33 0.33 67 1006.2
20210512121016 42 247 1.0 8.0 0.00 0.33 0.33 67 1006.4
20210512120016 41 202 7.0 13.0 0.00 0.33 0.33 67 1006.4
20210512115016 43 270 1.0 6.0 0.00 0.33 0.33 67 1006.7
20210512114016 42 247 8.0 16.0 0.00 0.33 0.33 67 1006.7
20210512113016 42 270 3.0 9.0 0.00 0.33 0.33 67 1006.9
20210512112016 42 225 4.0 15.0 0.00 0.33 0.33 67 1007.1
20210512111015 42 202 3.0 10.0 0.00 0.33 0.33 67 1007.5
20210512110016 42 202 5.0 15.0 0.00 0.33 0.33 67 1007.0
20210512105016 42 247 3.0 10.0 0.00 0.32 0.32 67 1007.7
20210512104016 42 270 2.0 12.0 0.00 0.32 0.32 67 1007.6
20210512103016 41 225 7.0 16.0 0.00 0.32 0.32 67 1007.1
20210512102015 41 202 10.0 16.0 0.00 0.32 0.32 68 1007.0
20210512101015 40 202 8.0 17.0 0.00 0.32 0.32 68 1006.8
20210512100015 41 202 9.0 13.0 0.00 0.32 0.32 68 1006.7
20210512095015 41 202 8.0 14.0 0.00 0.32 0.32 68 1006.6
20210512094015 40 225 9.0 18.0 0.02 0.32 0.32 68 1006.7
20210512093015 40 225 7.0 14.0 0.03 0.32 0.32 68 1006.7
20210512092015 40 202 6.0 13.0 0.03 0.32 0.32 68 1006.8